Dahlonega, GA (30533)

7:54 PM EST on February 12, 2016 (GMT -0500)
Esborn Road | | Change Station
CLOSE
Current Station
Personal Weather Station
Location: Dahlonega, GA
Elevation: 1425 ft
Nearby Weather Stations

Elev 1425 ft 34.57 °N, 83.94 °W | Updated 9 seconds ago

Clear
Clear
41.0 °F
Feels Like 33 °F
N
14.0
Wind Variable Wind from SW
Gusts 14.0 mph

Today
High -- | Low -- °F
--% Chance of Precip.
Yesterday
High -- | Low -- °F
Precip. -- in
Pressure 30.08 in
Visibility 10.0 miles
Clouds Clear
Windchill 33 °F
Dew Point 29 °F
Humidity 63%
Rainfall 0.00 in
Snow Depth Not available.
7:24 AM 6:15 PM
Waxing Crescent, 25% visible
METAR KGVL 122353Z AUTO 28008KT 10SM CLR 09/M02 A3007 RMK AO2 SLP185 T00941017 10139 20094 53016
Pressure 30.08 in
Visibility 10.0 miles
Clouds Clear
Windchill 33 °F
Dew Point 29 °F
Humidity 63%
Rainfall 0.00 in
Snow Depth Not available.
7:24 AM 6:15 PM
Waxing Crescent, 25% visible
METAR KGVL 122353Z AUTO 28008KT 10SM CLR 09/M02 A3007 RMK AO2 SLP185 T00941017 10139 20094 53016

10-Day Weather Forecast

Almanac

Astronomy

Feb. 12, 2016 Rise Set
Actual Time
Civil Twilight
Nautical Twilight
Astronomical Twilight
Moon
Length of Visible Light
Length of Day
Tomorrow will be .
, % of the Moon is Illuminated

Today's Extremes

State Highs State Lows

Community

WunderPhotos

Upload Photos

1,892,444 photos uploaded!

WunderBlog® & News

Nearby

Air Quality

  Air Quality AQ Index Pollutant
Not available.

Snow Depth

Station Depth Elevation

Earthquake Activity

City Distance Mag. Time & Date
Minimum magnitude displayed is 2.5.

Coastal Water Temperatures

Place Temperature

Stations

Nearby Weather Stations

Station Location Temp. Windchill Dew Point Humidity Wind Precip. Elev Updated Type
                   

Watches & Warnings

There are currently no watches in effect.